createdAt,value
2023-03-30T00:00:27.274Z,4.00
2023-03-30T00:02:58.340Z,4.25
2023-03-30T00:05:31.957Z,1.50
2023-03-30T00:08:02.826Z,2.00
2023-03-30T00:10:33.893Z,3.00
2023-03-30T00:13:05.294Z,2.00
2023-03-30T00:15:36.025Z,4.50
2023-03-30T00:18:07.284Z,3.00
2023-03-30T00:20:37.935Z,4.00
2023-03-30T00:23:09.239Z,3.50
2023-03-30T00:25:40.132Z,1.00
2023-03-30T00:28:10.556Z,2.00
2023-03-30T00:30:41.599Z,4.00
2023-03-30T00:33:12.989Z,3.50
2023-03-30T00:35:43.483Z,2.00
2023-03-30T00:38:14.480Z,4.00
2023-03-30T00:40:48.149Z,2.00
2023-03-30T00:43:19.917Z,2.00
2023-03-30T00:45:50.939Z,3.50
2023-03-30T00:48:25.082Z,2.00
2023-03-30T00:51:02.583Z,3.50
2023-03-30T00:53:37.622Z,2.00
2023-03-30T00:56:12.481Z,5.00
2023-03-30T00:58:44.259Z,2.50
2023-03-30T01:01:18.037Z,4.25
2023-03-30T01:03:50.106Z,4.00
2023-03-30T01:06:22.819Z,0.00
2023-03-30T01:08:54.431Z,4.00
2023-03-30T01:11:26.532Z,0.25
2023-03-30T01:14:06.611Z,2.00
2023-03-30T01:16:39.964Z,2.00
2023-03-30T01:19:37.127Z,5.50
2023-03-30T01:22:43.623Z,4.00
2023-03-30T01:25:36.475Z,4.00
2023-03-30T01:28:27.414Z,4.00
2023-03-30T01:31:24.076Z,3.00
2023-03-30T01:33:59.830Z,1.75
2023-03-30T01:36:41.973Z,1.25
2023-03-30T01:39:33.200Z,3.00
2023-03-30T01:42:15.960Z,5.00
2023-03-30T01:45:00.774Z,1.00
2023-03-30T01:47:47.324Z,1.75
2023-03-30T01:50:25.974Z,4.25
2023-03-30T01:53:20.207Z,2.00
2023-03-30T01:55:53.724Z,1.75
2023-03-30T01:58:35.898Z,1.75
2023-03-30T02:01:08.253Z,1.50
2023-03-30T02:03:42.828Z,3.50
2023-03-30T02:06:21.612Z,4.00
2023-03-30T02:08:56.295Z,4.25
2023-03-30T02:11:30.761Z,2.00
2023-03-30T02:14:04.048Z,2.00
2023-03-30T02:16:37.426Z,3.00
2023-03-30T02:19:08.352Z,4.00
2023-03-30T02:21:39.776Z,3.50
2023-03-30T02:24:12.956Z,3.00
2023-03-30T02:26:44.849Z,2.00
2023-03-30T02:29:18.008Z,2.00
2023-03-30T02:31:51.320Z,1.25
2023-03-30T02:34:30.561Z,2.00
2023-03-30T02:37:12.947Z,2.50
2023-03-30T02:40:01.182Z,3.00
2023-03-30T02:43:08.022Z,4.00
2023-03-30T02:46:02.570Z,1.75
2023-03-30T02:48:38.390Z,1.75
2023-03-30T02:51:33.233Z,2.00
2023-03-30T02:54:09.601Z,3.50
2023-03-30T02:56:46.761Z,2.50
2023-03-30T02:59:29.265Z,4.75
2023-03-30T03:02:03.154Z,1.00
2023-03-30T03:04:35.767Z,2.50
2023-03-30T03:07:07.007Z,2.50
2023-03-30T03:09:37.960Z,4.00
2023-03-30T03:12:08.356Z,2.00
2023-03-30T03:14:40.190Z,4.00
2023-03-30T03:17:10.881Z,1.00
2023-03-30T03:19:41.345Z,3.50
2023-03-30T03:22:11.850Z,3.50
2023-03-30T03:24:42.510Z,4.25
2023-03-30T03:27:13.350Z,5.00
2023-03-30T03:29:43.751Z,1.50
2023-03-30T03:32:14.715Z,1.50
2023-03-30T03:34:45.483Z,2.00
2023-03-30T03:37:15.802Z,4.00
2023-03-30T03:39:46.789Z,4.25
2023-03-30T03:42:17.684Z,2.00
2023-03-30T03:44:47.942Z,1.00
2023-03-30T03:47:18.325Z,4.00
2023-03-30T03:49:48.733Z,5.00
2023-03-30T03:52:19.037Z,4.00
2023-03-30T03:54:49.738Z,4.25
2023-03-30T03:57:20.826Z,2.00
2023-03-30T03:59:51.842Z,2.00
2023-03-30T04:02:24.083Z,2.00
2023-03-30T04:04:54.703Z,4.00
2023-03-30T04:07:25.434Z,4.00
2023-03-30T04:09:56.031Z,4.00
2023-03-30T04:12:26.578Z,2.00
2023-03-30T04:14:57.591Z,4.00
2023-03-30T04:17:28.290Z,3.50
2023-03-30T04:20:01.478Z,4.00
2023-03-30T04:22:33.181Z,3.50
2023-03-30T04:25:05.571Z,4.50
2023-03-30T04:27:37.710Z,3.00
2023-03-30T04:30:10.922Z,2.00
2023-03-30T04:32:41.627Z,2.50
2023-03-30T04:35:12.200Z,3.50
2023-03-30T04:37:42.903Z,5.50
2023-03-30T04:40:13.589Z,5.00
2023-03-30T04:42:45.686Z,3.50
2023-03-30T04:45:17.172Z,2.00
2023-03-30T04:47:48.130Z,5.00
2023-03-30T04:50:18.598Z,4.50
2023-03-30T04:52:49.472Z,6.00
2023-03-30T04:58:33.725Z,2.00
2023-03-30T05:01:04.970Z,4.50
2023-03-30T05:03:37.087Z,3.00
2023-03-30T05:06:08.139Z,5.25
2023-03-30T05:08:41.753Z,5.75
2023-03-30T05:11:12.437Z,1.75
2023-03-30T05:13:44.204Z,5.00
2023-03-30T05:16:14.943Z,4.50
2023-03-30T05:18:46.204Z,3.50
2023-03-30T05:21:16.777Z,5.00
2023-03-30T05:23:47.005Z,5.00
2023-03-30T05:26:17.576Z,4.00
2023-03-30T05:28:48.093Z,4.75
2023-03-30T05:31:18.848Z,5.00
2023-03-30T05:33:50.139Z,4.00
2023-03-30T05:36:20.510Z,4.25
2023-03-30T05:38:51.013Z,4.50
2023-03-30T05:41:21.590Z,4.25
2023-03-30T05:43:52.158Z,5.00
2023-03-30T05:46:22.814Z,4.00
2023-03-30T05:48:54.141Z,4.75
2023-03-30T05:51:26.882Z,5.25
2023-03-30T05:53:57.534Z,6.00
2023-03-30T05:56:27.977Z,4.00
2023-03-30T05:58:59.012Z,4.25
2023-03-30T06:01:29.451Z,4.00
2023-03-30T06:04:00.441Z,5.00
2023-03-30T06:06:31.941Z,4.75
2023-03-30T06:09:03.319Z,5.25
2023-03-30T06:11:33.794Z,5.00
2023-03-30T06:14:04.186Z,9.25
2023-03-30T06:16:37.465Z,8.50
2023-03-30T06:19:07.849Z,9.00
2023-03-30T06:21:38.080Z,4.00
2023-03-30T06:24:09.884Z,5.25
2023-03-30T06:26:40.162Z,15.25
2023-03-30T06:29:11.216Z,8.00
2023-03-30T06:31:42.353Z,6.00
2023-03-30T06:34:12.659Z,6.75
2023-03-30T06:36:45.381Z,5.25
2023-03-30T06:39:15.603Z,5.50
2023-03-30T06:41:49.704Z,3.25
2023-03-30T06:44:19.985Z,3.00
2023-03-30T06:47:02.215Z,5.25
2023-03-30T06:49:37.933Z,3.25
2023-03-30T06:52:09.460Z,0.00
2023-03-30T06:54:40.406Z,4.50
2023-03-30T06:57:10.670Z,4.00
2023-03-30T06:59:41.192Z,7.50
2023-03-30T07:02:35.555Z,5.75
2023-03-30T07:05:07.556Z,5.50
2023-03-30T07:07:38.183Z,5.00
2023-03-30T07:10:09.089Z,5.50
2023-03-30T07:12:40.555Z,4.25
2023-03-30T07:15:11.608Z,6.00
2023-03-30T07:17:42.792Z,5.25
2023-03-30T07:20:14.005Z,5.50
2023-03-30T07:22:44.647Z,5.00
2023-03-30T07:25:15.193Z,6.00
2023-03-30T07:27:45.554Z,5.00
2023-03-30T07:30:21.914Z,5.00
2023-03-30T07:32:50.785Z,4.25
2023-03-30T07:35:21.711Z,2.50
2023-03-30T07:37:52.026Z,5.00
2023-03-30T07:40:23.105Z,5.00
2023-03-30T07:42:53.394Z,5.00
2023-03-30T07:45:23.800Z,3.25
2023-03-30T07:47:54.350Z,3.25
2023-03-30T07:50:24.605Z,5.00
2023-03-30T07:53:04.620Z,3.75
2023-03-30T07:55:35.839Z,5.00
2023-03-30T07:58:07.208Z,5.50
2023-03-30T08:00:37.919Z,7.75
2023-03-30T08:03:11.883Z,6.00
2023-03-30T08:05:43.449Z,5.25
2023-03-30T08:08:14.296Z,5.75
2023-03-30T08:10:45.776Z,6.00
2023-03-30T08:13:16.758Z,5.25
2023-03-30T08:15:47.808Z,5.00
2023-03-30T08:18:18.753Z,3.25
2023-03-30T08:20:52.600Z,5.00
2023-03-30T08:23:23.347Z,4.25
2023-03-30T08:25:58.205Z,4.50
2023-03-30T08:28:35.969Z,5.25
2023-03-30T08:31:07.941Z,5.00
2023-03-30T08:33:39.548Z,3.25
2023-03-30T08:36:10.167Z,5.25
2023-03-30T08:38:42.609Z,4.50
2023-03-30T08:41:21.722Z,6.00
2023-03-30T08:46:46.274Z,4.00
2023-03-30T08:49:19.968Z,5.00
2023-03-30T08:51:53.819Z,6.75
2023-03-30T08:54:25.076Z,6.50
2023-03-30T08:57:04.504Z,8.75
2023-03-30T09:00:05.596Z,6.00
2023-03-30T09:02:39.774Z,7.00
2023-03-30T09:05:38.084Z,7.25
2023-03-30T09:11:15.067Z,7.50
2023-03-30T09:13:46.993Z,8.25
2023-03-30T09:19:15.346Z,41.00
2023-03-30T09:21:49.195Z,6.00
2023-03-30T09:24:22.584Z,6.00
2023-03-30T09:27:11.205Z,5.00
2023-03-30T09:30:08.533Z,3.50
2023-03-30T09:32:54.862Z,5.00
2023-03-30T09:35:49.542Z,5.50
2023-03-30T09:38:21.710Z,5.75
2023-03-30T09:41:13.366Z,3.00
2023-03-30T09:43:45.483Z,5.00
2023-03-30T09:46:20.182Z,3.50
2023-03-30T09:48:52.958Z,7.00
2023-03-30T09:51:31.294Z,3.00
2023-03-30T09:54:06.332Z,1.25
2023-03-30T09:56:44.730Z,3.00
2023-03-30T09:59:36.008Z,5.50
2023-03-30T10:02:24.285Z,7.25
2023-03-30T10:04:58.019Z,7.00
2023-03-30T10:07:31.894Z,18.00
2023-03-30T10:10:17.711Z,78.75
2023-03-30T10:12:50.314Z,77.75
2023-03-30T10:15:23.391Z,38.25
2023-03-30T10:17:54.967Z,5.00
2023-03-30T10:20:31.268Z,5.00
2023-03-30T10:23:04.582Z,18.00
2023-03-30T10:25:35.601Z,44.00
2023-03-30T10:28:08.305Z,68.00
2023-03-30T10:30:40.648Z,63.50
2023-03-30T10:33:12.408Z,43.25
2023-03-30T10:35:42.789Z,16.00
2023-03-30T10:38:15.034Z,5.50
2023-03-30T10:40:46.794Z,5.50
2023-03-30T10:43:30.673Z,5.00
2023-03-30T10:46:19.505Z,6.00
2023-03-30T10:49:03.772Z,5.50
2023-03-30T10:52:02.333Z,4.25
2023-03-30T10:54:39.229Z,6.00
2023-03-30T10:57:18.655Z,6.00
2023-03-30T11:00:25.295Z,5.50
2023-03-30T11:03:11.069Z,6.50
2023-03-30T11:05:44.584Z,5.25
2023-03-30T11:08:32.705Z,5.00
2023-03-30T11:11:05.790Z,0.00
2023-03-30T11:13:45.238Z,5.50
2023-03-30T11:19:26.461Z,4.50
2023-03-30T11:22:07.036Z,7.00
2023-03-30T11:24:39.358Z,6.00
2023-03-30T11:27:39.746Z,2.25
2023-03-30T11:30:13.224Z,3.75
2023-03-30T11:32:50.177Z,6.25
2023-03-30T11:35:43.235Z,5.50
2023-03-30T11:41:17.174Z,6.00
2023-03-30T11:43:48.061Z,4.25
2023-03-30T11:46:21.926Z,6.75
2023-03-30T11:49:20.491Z,3.75
2023-03-30T11:52:08.800Z,6.25
2023-03-30T11:55:10.497Z,4.25
2023-03-30T11:58:04.164Z,6.00
2023-03-30T12:00:55.168Z,6.75
2023-03-30T12:03:43.288Z,9.50
2023-03-30T12:06:34.089Z,9.00
2023-03-30T12:09:10.508Z,8.00
2023-03-30T12:12:18.217Z,10.00
2023-03-30T12:15:09.392Z,10.25
2023-03-30T12:18:09.661Z,10.25
2023-03-30T12:20:50.925Z,9.00
2023-03-30T12:23:36.072Z,8.50
2023-03-30T12:26:27.121Z,10.25
2023-03-30T12:32:00.896Z,10.50
2023-03-30T12:34:37.656Z,7.50
2023-03-30T12:37:23.391Z,13.00
2023-03-30T12:40:02.532Z,8.75
2023-03-30T12:42:35.841Z,9.50
2023-03-30T12:45:17.822Z,8.75
2023-03-30T12:48:10.578Z,10.25
2023-03-30T12:50:44.445Z,13.50
2023-03-30T12:53:27.578Z,12.50
2023-03-30T12:56:06.673Z,12.00
2023-03-30T12:59:05.648Z,10.25
2023-03-30T13:02:03.560Z,11.00
2023-03-30T13:04:37.441Z,14.00
2023-03-30T13:07:13.561Z,12.75
2023-03-30T13:10:07.555Z,13.50
2023-03-30T13:12:42.484Z,11.75
2023-03-30T13:15:37.309Z,13.50
2023-03-30T13:18:13.678Z,11.25
2023-03-30T13:21:07.815Z,11.00
2023-03-30T13:23:39.370Z,14.50
2023-03-30T13:26:34.966Z,9.25
2023-03-30T13:29:14.112Z,7.50
2023-03-30T13:31:50.714Z,12.00
2023-03-30T13:34:35.333Z,13.25
2023-03-30T13:37:23.678Z,10.75
2023-03-30T13:40:02.637Z,13.25
2023-03-30T13:42:47.622Z,11.25
2023-03-30T13:46:00.304Z,12.25
2023-03-30T13:48:52.363Z,11.50
2023-03-30T13:51:25.802Z,16.00
2023-03-30T13:53:59.453Z,12.00
2023-03-30T13:56:35.754Z,9.50
2023-03-30T13:59:17.874Z,9.25
2023-03-30T14:01:54.581Z,12.00
2023-03-30T14:04:37.763Z,11.00
2023-03-30T14:07:15.873Z,14.00
2023-03-30T14:10:05.846Z,9.75
2023-03-30T14:12:54.839Z,9.00
2023-03-30T14:15:34.591Z,10.50
2023-03-30T14:18:05.642Z,9.50
2023-03-30T14:20:57.039Z,7.00
2023-03-30T14:23:33.302Z,7.00
2023-03-30T14:26:07.564Z,4.75
2023-03-30T14:28:38.808Z,4.25
2023-03-30T14:31:21.489Z,5.75
2023-03-30T14:33:54.951Z,6.75
2023-03-30T14:36:28.876Z,3.00
2023-03-30T14:39:02.113Z,8.25
2023-03-30T14:41:32.632Z,4.75
2023-03-30T14:44:05.970Z,3.75
2023-03-30T14:46:44.998Z,3.75
2023-03-30T14:49:24.363Z,3.50
2023-03-30T14:52:12.803Z,3.00
2023-03-30T14:54:58.184Z,3.25
2023-03-30T14:57:21.365Z,1.00
2023-03-30T14:59:57.321Z,3.00
2023-03-30T15:02:30.928Z,0.50
2023-03-30T15:05:07.522Z,4.00
2023-03-30T15:07:37.953Z,2.75
2023-03-30T15:10:10.206Z,2.75
2023-03-30T15:12:43.396Z,3.00
2023-03-30T15:15:16.677Z,5.00
2023-03-30T15:17:50.452Z,3.00
2023-03-30T15:20:21.220Z,2.75
2023-03-30T15:22:53.504Z,2.50
2023-03-30T15:25:27.108Z,3.00
2023-03-30T15:28:07.631Z,2.75
2023-03-30T15:30:43.301Z,3.25
2023-03-30T15:33:23.419Z,2.50
2023-03-30T15:35:56.328Z,3.25
2023-03-30T15:38:33.306Z,2.00
2023-03-30T15:41:05.315Z,3.00
2023-03-30T15:43:39.217Z,3.00
2023-03-30T15:46:12.569Z,3.00
2023-03-30T15:48:49.249Z,4.00
2023-03-30T15:51:26.738Z,3.75
2023-03-30T15:54:06.674Z,3.00
2023-03-30T15:57:07.277Z,3.00
2023-03-30T15:59:52.906Z,2.00
2023-03-30T16:02:53.232Z,2.75
2023-03-30T16:05:25.594Z,5.00
2023-03-30T16:07:56.914Z,2.00
2023-03-30T16:10:30.785Z,2.50
2023-03-30T16:13:01.868Z,2.00
2023-03-30T16:15:33.432Z,2.50
2023-03-30T16:18:05.164Z,4.25
2023-03-30T16:20:35.483Z,3.00
2023-03-30T16:23:06.020Z,2.25
2023-03-30T16:25:44.819Z,4.25
2023-03-30T16:28:11.406Z,3.25
2023-03-30T16:30:44.304Z,2.00
2023-03-30T16:33:15.718Z,2.25
2023-03-30T16:35:46.735Z,1.00
2023-03-30T16:38:18.847Z,3.00
2023-03-30T16:40:58.201Z,3.00
2023-03-30T16:43:32.171Z,3.50
2023-03-30T16:46:02.277Z,1.25
2023-03-30T16:48:36.051Z,2.00
2023-03-30T16:51:07.812Z,1.25
2023-03-30T16:53:43.362Z,3.00
2023-03-30T16:58:56.704Z,2.75
2023-03-30T17:01:29.667Z,5.00
2023-03-30T17:04:00.136Z,6.00
2023-03-30T17:06:33.774Z,3.50
2023-03-30T17:09:04.241Z,2.25
2023-03-30T17:11:34.742Z,5.50
2023-03-30T17:14:05.197Z,9.00
2023-03-30T17:16:37.974Z,9.50
2023-03-30T17:19:13.775Z,9.50
2023-03-30T17:21:44.906Z,10.75
2023-03-30T17:24:15.396Z,22.00
2023-03-30T17:26:46.554Z,23.00
2023-03-30T17:29:17.048Z,17.75
2023-03-30T17:31:48.191Z,16.25
2023-03-30T17:34:21.636Z,15.25
2023-03-30T17:36:54.221Z,17.75
2023-03-30T17:39:25.582Z,24.00
2023-03-30T17:41:56.113Z,20.75
2023-03-30T17:44:28.201Z,9.00
2023-03-30T17:46:58.748Z,9.50
2023-03-30T17:49:29.708Z,9.00
2023-03-30T17:52:00.339Z,10.50
2023-03-30T17:54:31.151Z,9.75
2023-03-30T17:57:03.381Z,13.75
2023-03-30T17:59:34.006Z,4.25
2023-03-30T18:02:04.334Z,5.00
2023-03-30T18:04:35.536Z,5.00
2023-03-30T18:07:08.231Z,3.00
2023-03-30T18:09:38.579Z,0.25
2023-03-30T18:12:13.027Z,3.00
2023-03-30T18:14:43.632Z,2.00
2023-03-30T18:17:15.022Z,2.25
2023-03-30T18:19:46.208Z,2.25
2023-03-30T18:22:17.036Z,2.00
2023-03-30T18:24:54.995Z,0.75
2023-03-30T18:27:26.902Z,1.00
2023-03-30T18:29:58.339Z,2.00
2023-03-30T18:32:46.233Z,2.25
2023-03-30T18:35:08.727Z,3.00
2023-03-30T18:37:40.243Z,6.00
2023-03-30T18:40:38.076Z,2.75
2023-03-30T18:43:12.871Z,6.00
2023-03-30T18:45:46.754Z,6.00
2023-03-30T18:48:21.214Z,5.00
2023-03-30T18:51:01.461Z,6.00
2023-03-30T18:53:34.429Z,5.75
2023-03-30T18:56:04.721Z,5.50
2023-03-30T18:58:35.304Z,5.00
2023-03-30T19:01:07.900Z,5.50
2023-03-30T19:03:39.329Z,5.75
2023-03-30T19:06:18.687Z,5.00
2023-03-30T19:08:49.962Z,5.00
2023-03-30T19:11:23.424Z,4.50
2023-03-30T19:13:57.748Z,6.75
2023-03-30T19:16:28.315Z,5.00
2023-03-30T19:18:58.720Z,0.00
2023-03-30T19:21:49.985Z,6.00
2023-03-30T19:24:21.412Z,5.25
2023-03-30T19:26:54.461Z,12.00
2023-03-30T19:29:26.655Z,2.00
2023-03-30T19:31:58.586Z,3.00
2023-03-30T19:34:29.569Z,5.00
2023-03-30T19:37:00.004Z,3.00
2023-03-30T19:39:33.719Z,3.00
2023-03-30T19:42:08.836Z,3.00
2023-03-30T19:44:39.774Z,4.50
2023-03-30T19:47:11.088Z,3.00
2023-03-30T19:49:41.709Z,3.00
2023-03-30T19:52:14.015Z,3.25
2023-03-30T19:55:00.369Z,2.75
2023-03-30T19:57:22.590Z,3.00
2023-03-30T20:03:01.637Z,5.00
2023-03-30T20:05:32.417Z,2.75
2023-03-30T20:10:54.762Z,6.00
2023-03-30T20:13:27.968Z,6.00
2023-03-30T20:15:59.723Z,7.00
2023-03-30T20:18:30.791Z,6.00
2023-03-30T20:21:03.537Z,6.00
2023-03-30T20:23:34.224Z,5.75
2023-03-30T20:26:04.941Z,6.75
2023-03-30T20:28:36.333Z,7.25
2023-03-30T20:31:07.556Z,6.75
2023-03-30T20:33:39.167Z,4.25
2023-03-30T20:36:17.118Z,3.25
2023-03-30T20:38:49.013Z,5.50
2023-03-30T20:41:19.919Z,6.75
2023-03-30T20:43:57.016Z,5.25
2023-03-30T20:46:22.868Z,6.75
2023-03-30T20:48:54.575Z,4.50
2023-03-30T20:51:27.196Z,5.50
2023-03-30T20:53:58.064Z,6.00
2023-03-30T20:56:32.406Z,6.25
2023-03-30T20:59:02.800Z,3.25
2023-03-30T21:01:33.796Z,5.75
2023-03-30T21:04:06.387Z,6.00
2023-03-30T21:06:39.749Z,7.25
2023-03-30T21:12:25.354Z,3.25
2023-03-30T21:14:56.960Z,8.25
2023-03-30T21:17:27.514Z,6.25
2023-03-30T21:19:57.892Z,5.25
2023-03-30T21:22:28.908Z,8.50
2023-03-30T21:24:59.928Z,7.25
2023-03-30T21:27:30.288Z,3.25
2023-03-30T21:30:01.127Z,8.25
2023-03-30T21:32:32.256Z,11.50
2023-03-30T21:35:02.960Z,14.25
2023-03-30T21:37:40.878Z,15.50
2023-03-30T21:40:12.232Z,13.00
2023-03-30T21:42:44.286Z,15.50
2023-03-30T21:45:16.441Z,9.50
2023-03-30T21:47:46.750Z,8.75
2023-03-30T21:50:17.792Z,8.25
2023-03-30T21:52:48.236Z,7.50
2023-03-30T21:55:18.783Z,8.50
2023-03-30T21:57:49.091Z,12.50
2023-03-30T22:00:19.406Z,9.00
2023-03-30T22:02:50.427Z,9.75
2023-03-30T22:05:21.837Z,11.00
2023-03-30T22:07:53.127Z,14.50
2023-03-30T22:10:23.896Z,6.00
2023-03-30T22:12:57.493Z,7.00
2023-03-30T22:15:29.989Z,8.50
2023-03-30T22:18:09.976Z,7.50
2023-03-30T22:20:41.677Z,0.00
2023-03-30T22:23:11.941Z,7.00
2023-03-30T22:25:43.018Z,7.00
2023-03-30T22:28:13.721Z,5.25
2023-03-30T22:30:47.289Z,4.75
2023-03-30T22:36:49.865Z,5.00
2023-03-30T22:39:20.250Z,6.00
2023-03-30T22:41:50.694Z,5.00
2023-03-30T22:44:23.428Z,8.00
2023-03-30T22:46:53.709Z,5.25
2023-03-30T22:49:23.872Z,6.00
2023-03-30T22:51:54.604Z,4.25
2023-03-30T22:54:25.386Z,5.75
2023-03-30T22:56:56.371Z,4.00
2023-03-30T22:59:26.774Z,6.00
2023-03-30T23:01:57.718Z,3.50
2023-03-30T23:04:35.064Z,6.00
2023-03-30T23:10:12.128Z,6.50
2023-03-30T23:12:48.551Z,5.00
2023-03-30T23:15:37.674Z,5.75
2023-03-30T23:18:23.609Z,5.75
2023-03-30T23:21:10.533Z,5.75
2023-03-30T23:23:40.057Z,6.00
2023-03-30T23:26:13.137Z,5.25
2023-03-30T23:28:43.768Z,6.50
2023-03-30T23:31:20.687Z,3.00
2023-03-30T23:33:52.820Z,5.00
2023-03-30T23:36:24.723Z,6.50
2023-03-30T23:38:55.022Z,6.00
2023-03-30T23:41:25.301Z,7.50
2023-03-30T23:43:55.685Z,6.50
2023-03-30T23:46:29.101Z,5.50
2023-03-30T23:48:59.692Z,4.00
2023-03-30T23:51:30.634Z,5.00
2023-03-30T23:54:04.328Z,6.00
2023-03-30T23:57:11.218Z,7.00
2023-03-30T23:59:22.760Z,7.50
